Time;durP1;ratioP1;P1;durP2;ratioP2;P2;SDS_P1;SDS_P2;PMS_P1;PMS_P2;Temp;Humidity;BMP_temperature;BMP_pressure;BME280_temperature;BME280_humidity;BME280_pressure;Samples;Min_cycle;Max_cycle;Signal;HPM_P1;HPM_P2
2021/01/04 09:09:20;;;;;;;62.17;24.60;;;;;;;4.43;81.53;101091.84;1801842;79;22765;-68
2021/01/04 09:12:07;;;;;;;182.20;60.55;;;;;;;4.40;81.44;101097.05;1752299;79;21209;-67
2021/01/04 09:14:57;;;;;;;96.82;38.25;;;;;;;4.39;81.29;101098.05;1742310;81;21137;-68
2021/01/04 09:17:49;;;;;;;115.62;41.50;;;;;;;4.39;81.27;101096.70;1723831;81;21141;-67
2021/01/04 09:20:55;;;;;;;184.70;61.80;;;;;;;4.42;81.29;101091.48;1773037;80;21897;-69
2021/01/04 09:23:28;;;;;;;56.68;23.45;;;;;;;4.43;81.31;101084.56;1780242;80;21499;-68
2021/01/04 09:26:04;;;;;;;67.20;28.05;;;;;;;4.45;81.24;101087.14;1785506;80;21372;-70
2021/01/04 09:28:45;;;;;;;34.83;16.52;;;;;;;4.48;81.18;101078.71;1786475;80;21173;-70
2021/01/04 09:31:17;;;;;;;36.42;18.48;;;;;;;4.50;81.06;101079.42;1774813;79;21344;-69
2021/01/04 09:33:49;;;;;;;39.18;19.45;;;;;;;4.50;80.97;101082.64;1790221;79;21888;-69
2021/01/04 09:36:21;;;;;;;37.38;15.15;;;;;;;4.50;80.95;101083.50;1784141;79;21181;-67
2021/01/04 09:39:06;;;;;;;36.25;16.77;;;;;;;4.49;80.85;101078.21;1817725;79;22071;-69
2021/01/04 09:41:33;;;;;;;38.60;16.55;;;;;;;4.46;80.85;101080.71;1818399;79;21157;-70
2021/01/04 09:44:06;;;;;;;37.13;16.20;;;;;;;4.46;80.82;101073.92;1819743;79;21178;-71
2021/01/04 09:46:55;;;;;;;36.30;16.27;;;;;;;4.48;80.74;101075.14;1774981;80;21158;-69
2021/01/04 09:49:27;;;;;;;33.83;16.32;;;;;;;4.50;80.75;101077.21;1785448;79;21475;-69
2021/01/04 09:52:15;;;;;;;32.95;16.97;;;;;;;4.49;80.73;101072.28;1783896;79;21158;-68
2021/01/04 09:54:49;;;;;;;42.25;18.65;;;;;;;4.49;80.80;101064.64;1785679;79;21185;-70
2021/01/04 09:57:21;;;;;;;36.03;15.55;;;;;;;4.54;80.98;101074.07;1777372;79;21146;-70
2021/01/04 09:59:49;;;;;;;34.03;14.20;;;;;;;4.61;81.14;101065.75;1776442;79;21182;-66
2021/01/04 10:02:22;;;;;;;35.13;15.65;;;;;;;4.68;81.22;101074.17;1785425;80;21960;-70
2021/01/04 10:04:50;;;;;;;33.70;15.53;;;;;;;4.70;81.12;101064.89;1785147;79;21177;-67
2021/01/04 10:07:25;;;;;;;43.15;17.05;;;;;;;4.73;81.13;101056.45;1772785;79;21386;-66
2021/01/04 10:09:52;;;;;;;32.48;15.60;;;;;;;4.78;81.01;101060.09;1769525;79;21950;-71
2021/01/04 10:12:23;;;;;;;39.60;15.90;;;;;;;4.82;80.85;101063.38;1770637;79;21146;-69
2021/01/04 10:14:54;;;;;;;36.45;15.45;;;;;;;4.84;80.67;101064.09;1755192;81;21275;-67
2021/01/04 10:17:28;;;;;;;32.60;15.25;;;;;;;4.88;80.51;101065.52;1762867;79;21454;-73
2021/01/04 10:19:58;;;;;;;32.10;15.25;;;;;;;4.89;80.33;101058.58;1770040;79;21381;-69
2021/01/04 10:22:34;;;;;;;31.52;14.35;;;;;;;4.90;80.26;101062.16;1760294;81;21381;-73
2021/01/04 10:25:15;;;;;;;33.00;15.88;;;;;;;4.88;80.21;101061.45;1745114;81;21110;-69
2021/01/04 10:27:43;;;;;;;36.73;15.80;;;;;;;4.87;80.07;101063.80;1769792;79;21186;-76
2021/01/04 10:30:14;;;;;;;35.68;14.93;;;;;;;4.86;80.02;101055.30;1768721;81;21830;-73
2021/01/04 10:32:41;;;;;;;33.85;15.28;;;;;;;4.89;80.01;101059.94;1770764;79;21110;-66
2021/01/04 10:35:22;;;;;;;35.55;16.73;;;;;;;4.88;79.94;101056.02;1770004;79;21878;-69
2021/01/04 10:37:54;;;;;;;30.90;14.98;;;;;;;4.89;80.02;101054.52;1725081;81;21185;-70
2021/01/04 10:40:23;;;;;;;37.08;15.93;;;;;;;4.89;80.01;101052.30;1713862;83;21376;-70
2021/01/04 10:43:03;;;;;;;42.25;17.75;;;;;;;4.88;80.03;101050.08;1712424;82;21217;-70
2021/01/04 10:45:39;;;;;;;36.00;16.48;;;;;;;4.88;80.05;101049.23;1708442;82;21474;-69
2021/01/04 10:48:17;;;;;;;42.67;19.55;;;;;;;4.93;80.09;101049.64;1698165;82;21432;-69
2021/01/04 10:50:54;;;;;;;48.92;22.90;;;;;;;4.93;80.11;101057.30;1711559;82;21436;-69
2021/01/04 10:53:38;;;;;;;48.70;21.25;;;;;;;4.91;80.04;101062.52;1712820;82;21786;-71
2021/01/04 10:56:21;;;;;;;46.37;21.77;;;;;;;4.89;80.08;101069.95;1712412;82;21863;-66
2021/01/04 10:59:17;;;;;;;48.92;22.02;;;;;;;4.86;80.03;101060.73;1742476;82;21953;-73
2021/01/04 11:01:47;;;;;;;46.45;21.68;;;;;;;4.85;80.02;101061.23;1741363;82;21981;-68
2021/01/04 11:04:18;;;;;;;44.10;20.62;;;;;;;4.84;80.10;101065.45;1742069;82;21221;-71
2021/01/04 11:06:50;;;;;;;40.25;19.40;;;;;;;4.84;80.27;101064.09;1742229;82;21449;-68
2021/01/04 11:09:28;;;;;;;50.12;22.17;;;;;;;4.88;80.62;101067.73;1700940;82;21149;-70
